createdAt,value
2022-10-17T00:00:01.651Z,17.03
2022-10-17T00:05:01.511Z,17.06
2022-10-17T00:10:02.021Z,17.08
2022-10-17T00:15:01.713Z,17.1
2022-10-17T00:20:01.899Z,17.11
2022-10-17T00:25:01.348Z,17.14
2022-10-17T00:30:02.044Z,17.11
2022-10-17T00:35:01.462Z,17.11
2022-10-17T00:40:02.030Z,17.11
2022-10-17T00:45:01.703Z,17.09
2022-10-17T00:50:07.163Z,17.07
2022-10-17T00:55:01.417Z,17.02
2022-10-17T01:00:01.376Z,16.96
2022-10-17T01:05:01.491Z,16.88
2022-10-17T01:10:01.528Z,16.8
2022-10-17T01:15:01.286Z,16.71
2022-10-17T01:20:01.743Z,16.66
2022-10-17T01:30:01.563Z,16.73
2022-10-17T01:35:01.317Z,16.76
2022-10-17T01:40:01.670Z,16.74
2022-10-17T01:45:02.195Z,16.85
2022-10-17T01:50:02.871Z,16.91
2022-10-17T01:55:02.207Z,16.93
2022-10-17T02:00:01.272Z,16.9
2022-10-17T02:05:06.872Z,16.92
2022-10-17T02:10:02.719Z,16.91
2022-10-17T02:15:01.862Z,16.96
2022-10-17T02:20:01.577Z,16.99
2022-10-17T02:25:01.408Z,16.98
2022-10-17T02:30:02.096Z,16.9
2022-10-17T02:35:01.876Z,16.87
2022-10-17T02:40:02.363Z,16.87
2022-10-17T02:45:02.016Z,16.88
2022-10-17T02:50:01.621Z,16.91
2022-10-17T02:55:01.303Z,16.9
2022-10-17T03:00:01.644Z,16.99
2022-10-17T03:05:01.323Z,17.01
2022-10-17T03:10:01.453Z,16.99
2022-10-17T03:15:01.524Z,17.01
2022-10-17T03:20:01.983Z,17.03
2022-10-17T03:25:01.971Z,17.02
2022-10-17T03:30:01.976Z,16.95
2022-10-17T03:35:01.288Z,16.98
2022-10-17T03:40:01.556Z,16.93
2022-10-17T03:45:01.973Z,16.86
2022-10-17T03:50:01.955Z,16.82
2022-10-17T03:55:02.023Z,16.81
2022-10-17T04:00:01.227Z,16.79
2022-10-17T04:05:02.042Z,16.79
2022-10-17T04:10:02.214Z,16.78
2022-10-17T04:15:01.909Z,16.82
2022-10-17T04:20:02.029Z,16.9
2022-10-17T04:25:01.673Z,16.91
2022-10-17T04:30:01.866Z,16.84
2022-10-17T04:35:01.573Z,16.74
2022-10-17T04:40:01.926Z,16.73
2022-10-17T04:45:01.465Z,16.66
2022-10-17T04:50:01.621Z,16.66
2022-10-17T04:55:02.150Z,16.6
2022-10-17T05:00:01.555Z,16.57
2022-10-17T05:05:02.264Z,16.49
2022-10-17T05:10:01.847Z,16.42
2022-10-17T05:15:01.695Z,16.36
2022-10-17T05:20:01.444Z,16.4
2022-10-17T05:25:01.771Z,16.41
2022-10-17T05:30:01.907Z,16.36
2022-10-17T05:35:01.626Z,16.36
2022-10-17T05:40:01.360Z,16.31
2022-10-17T05:45:02.195Z,16.26
2022-10-17T05:50:01.600Z,16.19
2022-10-17T05:55:02.123Z,16.1
2022-10-17T06:00:01.466Z,16.02
2022-10-17T06:05:02.020Z,15.96
2022-10-17T06:10:02.137Z,15.9
2022-10-17T06:15:01.740Z,15.89
2022-10-17T06:20:04.174Z,15.88
2022-10-17T06:25:02.476Z,15.87
2022-10-17T06:30:01.563Z,15.9
2022-10-17T06:35:01.726Z,15.92
2022-10-17T06:40:01.612Z,15.93
2022-10-17T06:45:01.817Z,16.03
2022-10-17T06:50:02.029Z,16.06
2022-10-17T06:55:07.064Z,16.18
2022-10-17T07:00:01.441Z,16.26
2022-10-17T07:05:01.933Z,16.36
2022-10-17T07:10:01.666Z,16.5
2022-10-17T07:15:01.722Z,16.67
2022-10-17T07:20:02.096Z,16.78
2022-10-17T07:25:01.856Z,16.86
2022-10-17T07:30:01.445Z,16.86
2022-10-17T07:35:02.241Z,16.8
2022-10-17T07:40:01.703Z,16.79
2022-10-17T07:45:01.827Z,16.81
2022-10-17T07:50:02.005Z,16.9
2022-10-17T07:55:02.233Z,17.05
2022-10-17T08:00:01.465Z,17.14
2022-10-17T08:05:01.724Z,17.26
2022-10-17T08:10:01.564Z,17.4
2022-10-17T08:15:01.465Z,17.4
2022-10-17T08:20:01.292Z,17.72
2022-10-17T08:25:01.328Z,17.82
2022-10-17T08:30:02.199Z,17.82
2022-10-17T08:35:01.750Z,17.87
2022-10-17T08:40:01.442Z,17.88
2022-10-17T08:45:01.603Z,17.96
2022-10-17T08:50:01.509Z,18.13
2022-10-17T08:55:01.927Z,18.21
2022-10-17T09:00:02.118Z,18.19
2022-10-17T09:05:01.418Z,18.25
2022-10-17T09:10:01.404Z,18.28
2022-10-17T09:15:02.062Z,18.56
2022-10-17T09:20:01.502Z,19.09
2022-10-17T09:25:01.604Z,19.51
2022-10-17T09:30:02.262Z,19.94
2022-10-17T09:35:01.915Z,20.25
2022-10-17T09:40:01.940Z,20.36
2022-10-17T09:45:01.430Z,20.18
2022-10-17T09:50:01.424Z,20.26
2022-10-17T09:55:01.633Z,20.2
2022-10-17T10:00:02.306Z,20.22
2022-10-17T10:05:05.396Z,20.42
2022-10-17T10:10:02.018Z,20.55
2022-10-17T10:15:02.146Z,20.78
2022-10-17T10:20:02.031Z,21.13
2022-10-17T10:25:01.713Z,21.18
2022-10-17T10:30:02.037Z,21.11
2022-10-17T10:35:02.098Z,21.08
2022-10-17T10:40:01.513Z,21.1
2022-10-17T10:45:02.229Z,21.21
2022-10-17T10:50:02.158Z,21.23
2022-10-17T10:55:01.274Z,21.24
2022-10-17T11:00:01.277Z,21.21
2022-10-17T11:05:01.983Z,21.24
2022-10-17T11:10:01.909Z,21.15
2022-10-17T11:15:01.386Z,21.16
2022-10-17T11:20:02.198Z,21.04
2022-10-17T11:25:01.755Z,21.01
2022-10-17T11:30:01.404Z,21.01
2022-10-17T11:35:01.836Z,21.09
2022-10-17T11:40:01.391Z,21.1
2022-10-17T11:45:02.209Z,21.11
2022-10-17T11:51:59.873Z,21.02
2022-10-17T11:55:01.374Z,21.09
2022-10-17T12:00:02.079Z,21.06
2022-10-17T12:05:01.266Z,21.08
2022-10-17T12:10:01.461Z,21.02
2022-10-17T12:15:02.026Z,21.05
2022-10-17T12:20:01.897Z,21.02
2022-10-17T12:25:01.641Z,21
2022-10-17T12:30:02.049Z,20.96
2022-10-17T12:35:02.217Z,20.94
2022-10-17T12:40:01.947Z,20.95
2022-10-17T12:45:01.428Z,20.91
2022-10-17T12:50:01.439Z,20.85
2022-10-17T12:55:12.765Z,20.75
2022-10-17T13:00:01.368Z,20.74
2022-10-17T13:05:01.579Z,20.7
2022-10-17T13:10:02.255Z,20.73
2022-10-17T13:15:01.677Z,20.63
2022-10-17T13:20:01.961Z,20.44
2022-10-17T13:25:02.185Z,20.31
2022-10-17T13:30:02.208Z,20.16
2022-10-17T13:35:01.509Z,20.04
2022-10-17T13:40:11.351Z,19.96
2022-10-17T13:45:02.192Z,19.81
2022-10-17T13:50:01.387Z,19.75
2022-10-17T13:55:02.255Z,19.65
2022-10-17T14:00:02.175Z,19.59
2022-10-17T14:05:17.746Z,19.61
2022-10-17T14:10:02.228Z,19.6
2022-10-17T14:15:10.553Z,19.59
2022-10-17T14:20:16.433Z,19.58
2022-10-17T14:25:02.709Z,19.6
2022-10-17T14:30:01.790Z,19.62
2022-10-17T14:35:18.754Z,19.69
2022-10-17T14:40:01.697Z,19.72
2022-10-17T14:45:02.125Z,19.72
2022-10-17T14:50:01.367Z,19.73
2022-10-17T14:55:02.211Z,19.63
2022-10-17T15:00:01.625Z,19.55
2022-10-17T15:05:02.085Z,19.42
2022-10-17T15:10:01.318Z,19.4
2022-10-17T15:15:01.597Z,19.35
2022-10-17T15:20:02.065Z,19.27
2022-10-17T15:25:01.267Z,19.23
2022-10-17T15:30:01.480Z,19.17
2022-10-17T15:35:02.211Z,19.11
2022-10-17T15:40:01.590Z,19.07
2022-10-17T15:45:02.125Z,19.02
2022-10-17T15:50:02.132Z,18.99
2022-10-17T15:55:04.363Z,18.95
2022-10-17T16:00:01.396Z,18.88
2022-10-17T16:05:01.557Z,18.78
2022-10-17T16:10:01.648Z,18.66
2022-10-17T16:15:01.615Z,18.56
2022-10-17T16:20:01.364Z,18.48
2022-10-17T16:25:02.013Z,18.4
2022-10-17T16:30:01.724Z,18.34
2022-10-17T16:35:01.636Z,18.27
2022-10-17T16:40:01.644Z,18.22
2022-10-17T16:45:01.251Z,18.18
2022-10-17T16:50:01.298Z,18.08
2022-10-17T16:55:01.564Z,18.03
2022-10-17T17:00:01.787Z,17.95
2022-10-17T17:05:01.605Z,17.88
2022-10-17T17:10:01.940Z,17.82
2022-10-17T17:15:01.865Z,17.8
2022-10-17T17:20:01.922Z,17.75
2022-10-17T17:25:02.043Z,17.68
2022-10-17T17:30:01.420Z,17.65
2022-10-17T17:35:01.794Z,17.58
2022-10-17T17:40:01.368Z,17.55
2022-10-17T17:45:01.551Z,17.54
2022-10-17T17:50:01.955Z,17.61
2022-10-17T17:55:02.518Z,17.74
2022-10-17T18:00:01.305Z,17.72
2022-10-17T18:05:02.081Z,17.83
2022-10-17T18:10:01.908Z,17.97
2022-10-17T18:15:01.328Z,17.82
2022-10-17T18:20:02.122Z,17.74
2022-10-17T18:25:01.279Z,17.77
2022-10-17T18:30:01.866Z,17.7
2022-10-17T18:35:02.030Z,17.66
2022-10-17T18:40:02.177Z,17.73
2022-10-17T18:45:01.900Z,17.73
2022-10-17T18:50:02.217Z,17.46
2022-10-17T18:55:01.498Z,17.39
2022-10-17T19:00:01.936Z,17.31
2022-10-17T19:05:01.418Z,17.31
2022-10-17T19:10:01.446Z,17.43
2022-10-17T19:15:02.016Z,17.21
2022-10-17T19:20:01.624Z,17.22
2022-10-17T19:25:01.256Z,17.2
2022-10-17T19:30:01.723Z,17.16
2022-10-17T19:35:02.049Z,17.09
2022-10-17T19:40:01.472Z,17.03
2022-10-17T19:45:01.513Z,16.95
2022-10-17T19:50:05.014Z,16.9
2022-10-17T19:55:01.341Z,16.87
2022-10-17T20:00:02.007Z,16.88
2022-10-17T20:05:17.539Z,16.8
2022-10-17T20:10:01.577Z,16.78
2022-10-17T20:15:02.241Z,16.78
2022-10-17T20:20:04.883Z,16.77
2022-10-17T20:25:01.631Z,16.7
2022-10-17T20:30:01.302Z,16.67
2022-10-17T20:35:02.056Z,16.65
2022-10-17T20:40:33.091Z,16.54
2022-10-17T20:45:01.770Z,16.4
2022-10-17T20:50:01.539Z,16.27
2022-10-17T20:55:01.374Z,16.22
2022-10-17T21:00:02.087Z,16.24
2022-10-17T21:05:01.823Z,16.16
2022-10-17T21:10:17.739Z,16.06
2022-10-17T21:15:01.290Z,16.04
2022-10-17T21:20:01.693Z,16.02
2022-10-17T21:25:01.829Z,15.92
2022-10-17T21:30:01.430Z,15.95
2022-10-17T21:35:01.727Z,15.88
2022-10-17T21:40:01.471Z,15.85
2022-10-17T21:45:04.769Z,15.84
2022-10-17T21:50:01.643Z,15.77
2022-10-17T21:55:01.407Z,15.73
2022-10-17T22:00:02.275Z,15.75
2022-10-17T22:05:01.514Z,15.73
2022-10-17T22:10:01.446Z,15.73
2022-10-17T22:15:01.703Z,15.71
2022-10-17T22:20:02.053Z,15.71
2022-10-17T22:25:01.645Z,15.62
2022-10-17T22:30:02.183Z,15.63
2022-10-17T22:35:01.369Z,15.68
2022-10-17T22:40:01.612Z,15.72
2022-10-17T22:45:01.899Z,15.72
2022-10-17T22:50:01.587Z,15.72
2022-10-17T22:55:01.466Z,15.7
2022-10-17T23:00:01.677Z,15.68
2022-10-17T23:05:01.828Z,15.7
2022-10-17T23:10:01.893Z,15.69
2022-10-17T23:15:01.576Z,15.69
2022-10-17T23:20:01.333Z,15.73
2022-10-17T23:25:01.262Z,15.73
2022-10-17T23:30:01.340Z,15.73
2022-10-17T23:35:01.870Z,15.73
2022-10-17T23:40:01.622Z,15.75
2022-10-17T23:45:01.632Z,15.73
2022-10-17T23:50:02.008Z,15.7
2022-10-17T23:55:01.953Z,15.68
